createdAt,value
2023-05-02T00:00:50.787Z,100488.66
2023-05-02T00:03:17.830Z,100496.10
2023-05-02T00:05:44.757Z,100496.44
2023-05-02T00:08:12.232Z,100495.36
2023-05-02T00:10:39.236Z,100494.98
2023-05-02T00:13:06.107Z,100499.98
2023-05-02T00:15:32.860Z,100500.14
2023-05-02T00:18:00.405Z,100500.50
2023-05-02T00:20:27.279Z,100502.52
2023-05-02T00:22:55.396Z,100498.95
2023-05-02T00:25:22.110Z,100501.75
2023-05-02T00:27:51.113Z,100507.94
2023-05-02T00:30:18.753Z,100507.60
2023-05-02T00:32:45.978Z,100509.02
2023-05-02T00:35:13.062Z,100510.85
2023-05-02T00:37:39.920Z,100510.74
2023-05-02T00:40:08.207Z,100513.62
2023-05-02T00:42:36.671Z,100513.71
2023-05-02T00:45:07.176Z,100512.88
2023-05-02T00:47:34.548Z,100516.40
2023-05-02T00:50:02.822Z,100516.86
2023-05-02T00:52:29.779Z,100519.91
2023-05-02T00:54:56.783Z,100523.26
2023-05-02T00:57:23.612Z,100524.63
2023-05-02T00:59:50.390Z,100523.91
2023-05-02T01:02:17.606Z,100525.14
2023-05-02T01:04:53.863Z,100528.63
2023-05-02T01:07:32.184Z,100529.79
2023-05-02T01:10:18.246Z,100532.19
2023-05-02T01:12:46.685Z,100540.05
2023-05-02T01:15:17.231Z,100542.61
2023-05-02T01:17:44.498Z,100539.25
2023-05-02T01:20:15.272Z,100540.49
2023-05-02T01:22:42.581Z,100542.57
2023-05-02T01:25:28.310Z,100541.23
2023-05-02T01:28:01.218Z,100544.04
2023-05-02T01:30:28.437Z,100548.98
2023-05-02T01:32:55.538Z,100549.69
2023-05-02T01:35:22.663Z,100552.92
2023-05-02T01:37:49.487Z,100552.77
2023-05-02T01:40:17.929Z,100552.50
2023-05-02T01:42:46.073Z,100557.75
2023-05-02T01:45:12.917Z,100557.95
2023-05-02T01:47:39.829Z,100558.73
2023-05-02T01:50:11.457Z,100562.34
2023-05-02T01:52:38.738Z,100563.02
2023-05-02T01:55:06.568Z,100561.20
2023-05-02T01:57:33.372Z,100564.88
2023-05-02T02:00:00.655Z,100567.09
2023-05-02T02:02:27.725Z,100567.31
2023-05-02T02:04:55.083Z,100570.31
2023-05-02T02:07:22.025Z,100570.54
2023-05-02T02:09:48.885Z,100570.34
2023-05-02T02:12:25.046Z,100576.80
2023-05-02T02:14:56.637Z,100577.20
2023-05-02T02:17:46.822Z,100582.18
2023-05-02T02:20:13.738Z,100583.22
2023-05-02T02:22:40.805Z,100585.55
2023-05-02T02:25:08.342Z,100591.19
2023-05-02T02:27:35.185Z,100593.75
2023-05-02T02:30:02.342Z,100595.17
2023-05-02T02:32:29.966Z,100602.46
2023-05-02T02:34:56.872Z,100608.10
2023-05-02T02:37:30.100Z,100611.47
2023-05-02T02:40:13.516Z,100621.44
2023-05-02T02:42:41.141Z,100626.39
2023-05-02T02:45:11.264Z,100628.05
2023-05-02T02:47:46.060Z,100628.66
2023-05-02T02:50:39.346Z,100637.35
2023-05-02T02:53:06.504Z,100635.38
2023-05-02T02:55:36.926Z,100639.42
2023-05-02T02:58:09.985Z,100640.29
2023-05-02T03:00:36.788Z,100645.55
2023-05-02T03:03:03.772Z,100648.31
2023-05-02T03:05:30.972Z,100646.39
2023-05-02T03:07:59.087Z,100653.63
2023-05-02T03:10:25.900Z,100655.09
2023-05-02T03:12:55.717Z,100654.81
2023-05-02T03:15:42.206Z,100655.98
2023-05-02T03:18:09.505Z,100660.44
2023-05-02T03:20:36.321Z,100664.69
2023-05-02T03:23:04.017Z,100666.45
2023-05-02T03:25:30.786Z,100670.30
2023-05-02T03:27:58.322Z,100667.71
2023-05-02T03:30:25.496Z,100665.39
2023-05-02T03:32:53.086Z,100670.99
2023-05-02T03:35:20.022Z,100672.24
2023-05-02T03:37:47.839Z,100674.92
2023-05-02T03:40:15.026Z,100676.65
2023-05-02T03:42:42.375Z,100680.66
2023-05-02T03:45:17.778Z,100682.86
2023-05-02T03:47:45.016Z,100686.73
2023-05-02T03:50:12.420Z,100691.09
2023-05-02T03:52:39.419Z,100695.14
2023-05-02T03:55:07.996Z,100697.60
2023-05-02T03:57:34.841Z,100699.61
2023-05-02T04:04:14.173Z,100705.07
2023-05-02T04:06:47.198Z,100709.27
2023-05-02T04:09:14.868Z,100710.73
2023-05-02T04:11:49.496Z,100712.40
2023-05-02T04:14:16.510Z,100719.58
2023-05-02T04:16:48.244Z,100719.80
2023-05-02T04:19:18.482Z,100719.95
2023-05-02T04:21:45.450Z,100721.27
2023-05-02T04:24:13.360Z,100727.29
2023-05-02T04:26:40.298Z,100729.83
2023-05-02T04:29:10.096Z,100733.24
2023-05-02T04:31:37.268Z,100737.72
2023-05-02T04:34:04.523Z,100741.14
2023-05-02T04:36:37.238Z,100740.29
2023-05-02T04:39:07.668Z,100743.45
2023-05-02T04:41:36.681Z,100744.16
2023-05-02T04:44:06.461Z,100741.88
2023-05-02T04:46:34.049Z,100744.77
2023-05-02T04:49:00.961Z,100750.98
2023-05-02T04:51:29.347Z,100754.41
2023-05-02T04:53:56.806Z,100754.87
2023-05-02T04:56:23.759Z,100761.29
2023-05-02T04:58:50.709Z,100762.87
2023-05-02T05:01:18.276Z,100763.55
2023-05-02T05:03:46.646Z,100767.98
2023-05-02T05:06:15.847Z,100767.65
2023-05-02T05:08:45.777Z,100771.24
2023-05-02T05:11:13.666Z,100776.46
2023-05-02T05:13:42.180Z,100778.86
2023-05-02T05:16:10.743Z,100775.67
2023-05-02T05:18:41.063Z,100771.83
2023-05-02T05:21:10.433Z,100774.14
2023-05-02T05:23:37.715Z,100777.27
2023-05-02T05:26:11.469Z,100777.60
2023-05-02T05:28:40.092Z,100778.17
2023-05-02T05:31:10.920Z,100783.04
2023-05-02T05:33:38.763Z,100783.73
2023-05-02T05:36:07.312Z,100783.54
2023-05-02T05:38:35.494Z,100782.78
2023-05-02T05:41:03.386Z,100785.30
2023-05-02T05:43:30.431Z,100783.91
2023-05-02T05:45:57.671Z,100786.85
2023-05-02T05:48:27.706Z,100791.51
2023-05-02T05:50:55.058Z,100791.98
2023-05-02T05:53:22.004Z,100790.29
2023-05-02T05:55:49.371Z,100794.45
2023-05-02T05:58:16.572Z,100788.87
2023-05-02T06:00:45.110Z,100790.02
2023-05-02T06:03:12.486Z,100791.55
2023-05-02T06:05:40.951Z,100792.39
2023-05-02T06:08:07.981Z,100796.63
2023-05-02T06:10:38.040Z,100798.20
2023-05-02T06:13:06.772Z,100794.89
2023-05-02T06:15:36.437Z,100794.84
2023-05-02T06:18:05.074Z,100797.10
2023-05-02T06:20:32.040Z,100793.63
2023-05-02T06:23:20.115Z,100794.73
2023-05-02T06:25:47.167Z,100798.09
2023-05-02T06:28:14.137Z,100805.05
2023-05-02T06:30:41.332Z,100801.88
2023-05-02T06:33:08.141Z,100799.39
2023-05-02T06:35:34.989Z,100798.73
2023-05-02T06:38:01.844Z,100802.73
2023-05-02T06:40:28.726Z,100804.92
2023-05-02T06:42:55.921Z,100805.33
2023-05-02T06:45:22.930Z,100811.60
2023-05-02T06:47:50.054Z,100812.80
2023-05-02T06:50:17.608Z,100814.44
2023-05-02T06:52:44.406Z,100815.76
2023-05-02T06:55:11.228Z,100816.45
2023-05-02T06:57:38.139Z,100819.02
2023-05-02T07:00:05.298Z,100822.34
2023-05-02T07:02:32.403Z,100821.33
2023-05-02T07:04:59.410Z,100825.21
2023-05-02T07:07:26.355Z,100824.83
2023-05-02T07:09:53.301Z,100820.49
2023-05-02T07:12:21.011Z,100821.19
2023-05-02T07:14:47.900Z,100828.03
2023-05-02T07:17:15.927Z,100828.88
2023-05-02T07:19:55.949Z,100826.41
2023-05-02T07:22:22.778Z,100827.39
2023-05-02T07:24:59.510Z,100828.34
2023-05-02T07:27:26.726Z,100832.39
2023-05-02T07:29:53.461Z,100836.77
2023-05-02T07:32:21.832Z,100836.46
2023-05-02T07:34:49.121Z,100843.03
2023-05-02T07:37:15.970Z,100839.77
2023-05-02T07:39:42.812Z,100838.67
2023-05-02T07:42:10.186Z,100840.40
2023-05-02T07:44:37.064Z,100850.09
2023-05-02T07:47:03.881Z,100849.38
2023-05-02T07:49:31.597Z,100847.49
2023-05-02T07:51:58.491Z,100847.75
2023-05-02T07:54:28.371Z,100842.80
2023-05-02T07:57:02.493Z,100841.30
2023-05-02T07:59:32.623Z,100837.87
2023-05-02T08:01:59.579Z,100840.73
2023-05-02T08:04:28.127Z,100839.99
2023-05-02T08:06:55.525Z,100839.34
2023-05-02T08:09:23.275Z,100841.22
2023-05-02T08:11:50.139Z,100843.89
2023-05-02T08:14:16.930Z,100839.68
2023-05-02T08:16:46.053Z,100843.27
2023-05-02T08:19:13.410Z,100839.27
2023-05-02T08:21:40.419Z,100841.20
2023-05-02T08:24:07.285Z,100840.02
2023-05-02T08:26:34.225Z,100839.40
2023-05-02T08:31:42.345Z,100834.95
2023-05-02T08:34:09.353Z,100832.77
2023-05-02T08:36:37.489Z,100832.23
2023-05-02T08:39:04.449Z,100827.81
2023-05-02T08:41:31.692Z,100829.95
2023-05-02T08:43:58.555Z,100829.04
2023-05-02T08:46:26.851Z,100827.11
2023-05-02T08:48:59.225Z,100829.84
2023-05-02T08:51:26.300Z,100833.65
2023-05-02T08:53:53.068Z,100825.69
2023-05-02T08:56:19.860Z,100817.81
2023-05-02T08:58:46.910Z,100827.04
2023-05-02T09:01:15.604Z,100819.25
2023-05-02T09:03:46.481Z,100813.19
2023-05-02T09:06:14.368Z,100810.41
2023-05-02T09:08:41.691Z,100814.88
2023-05-02T09:11:12.112Z,100810.23
2023-05-02T09:13:46.400Z,100810.91
2023-05-02T09:16:23.055Z,100809.04
2023-05-02T09:18:51.182Z,100811.13
2023-05-02T09:21:21.240Z,100812.73
2023-05-02T09:23:49.471Z,100807.35
2023-05-02T09:26:35.044Z,100810.94
2023-05-02T09:29:02.927Z,100812.28
2023-05-02T09:31:54.321Z,100809.64
2023-05-02T09:34:17.614Z,100815.46
2023-05-02T09:36:45.705Z,100815.89
2023-05-02T09:39:13.949Z,100817.15
2023-05-02T09:41:42.047Z,100818.20
2023-05-02T09:44:12.722Z,100822.07
2023-05-02T09:46:40.588Z,100820.08
2023-05-02T09:49:08.202Z,100824.39
2023-05-02T09:51:35.034Z,100823.74
2023-05-02T09:54:01.938Z,100821.25
2023-05-02T09:56:29.104Z,100820.17
2023-05-02T09:59:15.522Z,100821.05
2023-05-02T10:01:42.518Z,100825.67
2023-05-02T10:04:16.542Z,100817.52
2023-05-02T10:06:46.996Z,100816.63
2023-05-02T10:09:18.183Z,100819.86
2023-05-02T10:11:46.680Z,100818.70
2023-05-02T10:14:13.527Z,100820.20
2023-05-02T10:16:45.288Z,100823.55
2023-05-02T10:19:12.350Z,100823.94
2023-05-02T10:21:39.186Z,100825.41
2023-05-02T10:24:06.298Z,100820.19
2023-05-02T10:26:34.429Z,100815.84
2023-05-02T10:29:01.859Z,100818.86
2023-05-02T10:31:30.776Z,100830.38
2023-05-02T10:33:57.745Z,100831.55
2023-05-02T10:36:24.629Z,100829.19
2023-05-02T10:38:51.526Z,100826.77
2023-05-02T10:41:26.551Z,100826.79
2023-05-02T10:43:53.416Z,100829.02
2023-05-02T10:46:29.909Z,100827.48
2023-05-02T10:49:09.105Z,100831.95
2023-05-02T10:51:36.569Z,100825.96
2023-05-02T10:54:21.952Z,100824.38
2023-05-02T10:57:04.529Z,100827.74
2023-05-02T10:59:31.407Z,100825.59
2023-05-02T11:01:58.644Z,100828.29
2023-05-02T11:04:25.602Z,100824.93
2023-05-02T11:07:02.479Z,100822.48
2023-05-02T11:09:29.691Z,100825.72
2023-05-02T11:11:57.398Z,100827.83
2023-05-02T11:14:33.975Z,100826.61
2023-05-02T11:17:07.068Z,100826.21
2023-05-02T11:19:46.356Z,100822.16
2023-05-02T11:22:31.585Z,100815.23
2023-05-02T11:24:58.514Z,100816.81
2023-05-02T11:27:32.314Z,100815.13
2023-05-02T11:30:02.557Z,100818.10
2023-05-02T11:32:48.891Z,100816.46
2023-05-02T11:35:22.994Z,100815.39
2023-05-02T11:37:56.652Z,100819.98
2023-05-02T11:40:23.911Z,100817.41
2023-05-02T11:42:50.795Z,100820.86
2023-05-02T11:45:18.742Z,100816.33
2023-05-02T11:47:48.646Z,100814.72
2023-05-02T11:50:15.715Z,100810.08
2023-05-02T11:52:43.253Z,100815.77
2023-05-02T11:55:15.075Z,100814.70
2023-05-02T11:57:43.133Z,100815.29
2023-05-02T12:00:11.492Z,100811.36
2023-05-02T12:02:45.553Z,100811.10
2023-05-02T12:05:13.662Z,100812.61
2023-05-02T12:07:40.762Z,100813.98
2023-05-02T12:10:08.108Z,100811.60
2023-05-02T12:12:35.121Z,100810.39
2023-05-02T12:15:08.734Z,100806.18
2023-05-02T12:17:42.601Z,100815.87
2023-05-02T12:20:09.933Z,100814.42
2023-05-02T12:22:36.973Z,100812.55
2023-05-02T12:25:05.069Z,100806.40
2023-05-02T12:27:35.482Z,100809.42
2023-05-02T12:30:02.806Z,100807.89
2023-05-02T12:32:31.162Z,100806.64
2023-05-02T12:34:58.694Z,100805.95
2023-05-02T12:37:26.174Z,100809.39
2023-05-02T12:39:53.637Z,100809.50
2023-05-02T12:42:20.969Z,100810.86
2023-05-02T12:44:49.279Z,100815.19
2023-05-02T12:47:16.562Z,100817.67
2023-05-02T12:49:50.361Z,100816.80
2023-05-02T12:52:21.160Z,100813.56
2023-05-02T12:54:48.622Z,100809.89
2023-05-02T12:57:25.185Z,100810.98
2023-05-02T12:59:53.172Z,100810.95
2023-05-02T13:02:21.080Z,100811.05
2023-05-02T13:04:47.913Z,100811.29
2023-05-02T13:07:14.732Z,100814.20
2023-05-02T13:09:41.703Z,100812.70
2023-05-02T13:12:08.557Z,100812.02
2023-05-02T13:14:35.404Z,100808.44
2023-05-02T13:17:02.683Z,100806.71
2023-05-02T13:19:31.540Z,100811.76
2023-05-02T13:21:58.901Z,100807.93
2023-05-02T13:24:25.935Z,100807.35
2023-05-02T13:26:52.786Z,100804.64
2023-05-02T13:29:19.629Z,100808.02
2023-05-02T13:31:46.489Z,100809.27
2023-05-02T13:34:13.327Z,100808.85
2023-05-02T13:36:46.410Z,100809.41
2023-05-02T13:39:14.130Z,100805.52
2023-05-02T13:41:41.680Z,100807.69
2023-05-02T13:44:09.657Z,100805.42
2023-05-02T13:46:38.019Z,100810.95
2023-05-02T13:49:05.425Z,100813.27
2023-05-02T13:51:32.643Z,100815.15
2023-05-02T13:53:59.784Z,100814.38
2023-05-02T13:56:27.042Z,100810.61
2023-05-02T13:58:54.101Z,100809.73
2023-05-02T14:01:21.108Z,100811.56
2023-05-02T14:03:48.216Z,100809.86
2023-05-02T14:06:15.207Z,100814.87
2023-05-02T14:08:42.180Z,100813.46
2023-05-02T14:11:08.985Z,100811.56
2023-05-02T14:13:35.796Z,100811.37
2023-05-02T14:16:02.765Z,100814.61
2023-05-02T14:18:29.604Z,100817.39
2023-05-02T14:21:00.190Z,100822.52
2023-05-02T14:23:30.129Z,100821.88
2023-05-02T14:25:57.132Z,100818.87
2023-05-02T14:28:23.869Z,100817.25
2023-05-02T14:30:51.098Z,100818.10
2023-05-02T14:33:17.949Z,100822.11
2023-05-02T14:35:44.739Z,100824.08
2023-05-02T14:38:11.762Z,100823.73
2023-05-02T14:40:38.620Z,100825.47
2023-05-02T14:43:07.030Z,100822.58
2023-05-02T14:45:34.028Z,100816.45
2023-05-02T14:48:01.135Z,100815.73
2023-05-02T14:50:28.043Z,100816.48
2023-05-02T14:52:54.864Z,100814.86
2023-05-02T14:55:21.671Z,100815.02
2023-05-02T14:57:48.442Z,100814.47
2023-05-02T15:00:16.467Z,100812.80
2023-05-02T15:02:43.339Z,100816.03
2023-05-02T15:05:12.647Z,100814.51
2023-05-02T15:07:39.864Z,100813.19
2023-05-02T15:10:07.129Z,100814.19
2023-05-02T15:12:34.108Z,100810.02
2023-05-02T15:15:01.045Z,100804.93
2023-05-02T15:17:27.856Z,100807.23
2023-05-02T15:19:57.017Z,100806.09
2023-05-02T15:22:26.266Z,100807.18
2023-05-02T15:24:53.141Z,100809.08
2023-05-02T15:27:19.980Z,100807.70
2023-05-02T15:29:46.824Z,100810.48
2023-05-02T15:32:13.662Z,100813.16
2023-05-02T15:34:40.617Z,100816.45
2023-05-02T15:37:08.282Z,100818.85
2023-05-02T15:39:35.125Z,100821.02
2023-05-02T15:42:05.153Z,100822.84
2023-05-02T15:44:38.240Z,100822.77
2023-05-02T15:47:05.076Z,100824.04
2023-05-02T15:49:33.523Z,100823.75
2023-05-02T15:52:01.758Z,100827.74
2023-05-02T15:54:28.713Z,100828.91
2023-05-02T15:56:55.588Z,100828.17
2023-05-02T15:59:22.398Z,100828.66
2023-05-02T16:01:49.515Z,100831.62
2023-05-02T16:04:16.542Z,100833.66
2023-05-02T16:06:43.474Z,100838.19
2023-05-02T16:09:10.866Z,100838.77
2023-05-02T16:11:37.669Z,100835.45
2023-05-02T16:14:04.512Z,100840.06
2023-05-02T16:16:31.365Z,100837.88
2023-05-02T16:18:58.484Z,100844.28
2023-05-02T16:21:25.979Z,100844.80
2023-05-02T16:23:53.060Z,100845.63
2023-05-02T16:26:21.022Z,100844.11
2023-05-02T16:28:47.989Z,100844.29
2023-05-02T16:31:15.331Z,100846.81
2023-05-02T16:33:43.082Z,100850.38
2023-05-02T16:36:10.278Z,100851.78
2023-05-02T16:38:37.074Z,100857.55
2023-05-02T16:41:05.125Z,100857.68
2023-05-02T16:43:32.120Z,100859.54
2023-05-02T16:46:00.577Z,100858.77
2023-05-02T16:48:27.402Z,100858.98
2023-05-02T16:50:54.294Z,100863.50
2023-05-02T16:53:21.119Z,100864.02
2023-05-02T16:55:48.007Z,100862.47
2023-05-02T16:58:14.830Z,100866.71
2023-05-02T17:00:41.724Z,100871.90
2023-05-02T17:03:08.773Z,100869.45
2023-05-02T17:05:35.822Z,100868.84
2023-05-02T17:08:02.751Z,100873.18
2023-05-02T17:10:29.594Z,100871.94
2023-05-02T17:12:58.589Z,100871.96
2023-05-02T17:15:25.747Z,100874.85
2023-05-02T17:17:52.677Z,100879.32
2023-05-02T17:20:20.519Z,100883.52
2023-05-02T17:22:47.582Z,100883.44
2023-05-02T17:25:14.573Z,100884.42
2023-05-02T17:27:42.031Z,100891.02
2023-05-02T17:30:09.595Z,100896.88
2023-05-02T17:32:37.900Z,100899.42
2023-05-02T17:35:05.198Z,100901.02
2023-05-02T17:37:33.006Z,100901.27
2023-05-02T17:40:02.396Z,100902.06
2023-05-02T17:42:29.436Z,100899.12
2023-05-02T17:44:56.416Z,100904.58
2023-05-02T17:47:23.270Z,100905.09
2023-05-02T17:49:51.386Z,100906.20
2023-05-02T17:52:18.297Z,100907.78
2023-05-02T17:54:45.858Z,100911.66
2023-05-02T17:57:14.670Z,100914.41
2023-05-02T17:59:41.811Z,100915.01
2023-05-02T18:02:10.263Z,100913.15
2023-05-02T18:04:37.558Z,100914.70
2023-05-02T18:07:05.926Z,100911.20
2023-05-02T18:09:33.188Z,100912.71
2023-05-02T18:12:00.766Z,100914.58
2023-05-02T18:14:28.251Z,100917.89
2023-05-02T18:16:55.001Z,100923.69
2023-05-02T18:19:23.160Z,100923.27
2023-05-02T18:21:49.937Z,100922.86
2023-05-02T18:24:16.915Z,100920.66
2023-05-02T18:26:44.112Z,100921.96
2023-05-02T18:29:10.948Z,100923.55
2023-05-02T18:31:40.454Z,100920.41
2023-05-02T18:34:07.720Z,100920.60
2023-05-02T18:36:34.620Z,100920.81
2023-05-02T18:39:01.510Z,100922.35
2023-05-02T18:41:28.358Z,100919.66
2023-05-02T18:43:55.148Z,100921.47
2023-05-02T18:46:22.002Z,100917.70
2023-05-02T18:48:49.024Z,100920.09
2023-05-02T18:51:16.289Z,100919.59
2023-05-02T18:53:43.092Z,100923.56
2023-05-02T18:56:14.584Z,100925.59
2023-05-02T18:58:42.230Z,100924.44
2023-05-02T19:01:15.570Z,100922.67
2023-05-02T19:03:46.257Z,100924.00
2023-05-02T19:06:13.812Z,100925.34
2023-05-02T19:08:40.750Z,100923.47
2023-05-02T19:11:07.600Z,100923.61
2023-05-02T19:13:34.585Z,100925.10
2023-05-02T19:16:01.436Z,100925.25
2023-05-02T19:18:28.454Z,100921.62
2023-05-02T19:20:55.534Z,100921.02
2023-05-02T19:23:22.374Z,100917.20
2023-05-02T19:25:49.645Z,100918.25
2023-05-02T19:28:17.329Z,100920.27
2023-05-02T19:30:44.181Z,100919.06
2023-05-02T19:33:11.010Z,100922.24
2023-05-02T19:35:37.905Z,100922.02
2023-05-02T19:38:04.822Z,100919.56
2023-05-02T19:40:31.666Z,100918.38
2023-05-02T19:42:58.493Z,100916.87
2023-05-02T19:45:25.264Z,100916.95
2023-05-02T19:47:52.769Z,100917.40
2023-05-02T19:50:19.744Z,100918.13
2023-05-02T19:52:46.536Z,100923.30
2023-05-02T19:55:13.713Z,100920.65
2023-05-02T19:57:41.523Z,100919.62
2023-05-02T20:00:08.660Z,100922.52
2023-05-02T20:02:39.413Z,100918.45
2023-05-02T20:05:06.654Z,100921.75
2023-05-02T20:07:33.435Z,100924.49
2023-05-02T20:10:00.545Z,100922.70
2023-05-02T20:12:27.629Z,100921.08
2023-05-02T20:14:55.016Z,100920.27
2023-05-02T20:17:21.848Z,100919.25
2023-05-02T20:19:48.610Z,100919.72
2023-05-02T20:22:15.507Z,100917.86
2023-05-02T20:24:42.304Z,100916.64
2023-05-02T20:27:10.008Z,100919.29
2023-05-02T20:29:36.817Z,100923.11
2023-05-02T20:32:03.770Z,100923.39
2023-05-02T20:34:30.745Z,100922.70
2023-05-02T20:36:58.679Z,100927.70
2023-05-02T20:39:26.028Z,100925.63
2023-05-02T20:41:52.976Z,100927.30
2023-05-02T20:44:22.687Z,100926.41
2023-05-02T20:46:51.612Z,100928.92
2023-05-02T20:49:18.527Z,100928.64
2023-05-02T20:51:45.588Z,100932.73
2023-05-02T20:54:12.358Z,100930.79
2023-05-02T20:56:39.493Z,100930.39
2023-05-02T20:59:06.367Z,100928.80
2023-05-02T21:01:33.665Z,100926.37
2023-05-02T21:04:01.060Z,100927.34
2023-05-02T21:06:28.156Z,100922.23
2023-05-02T21:08:56.792Z,100924.88
2023-05-02T21:11:23.856Z,100925.09
2023-05-02T21:13:50.903Z,100919.17
2023-05-02T21:16:18.251Z,100917.44
2023-05-02T21:18:45.861Z,100917.40
2023-05-02T21:21:12.970Z,100918.63
2023-05-02T21:23:39.732Z,100918.86
2023-05-02T21:26:06.534Z,100917.31
2023-05-02T21:28:33.393Z,100916.73
2023-05-02T21:31:01.417Z,100917.02
2023-05-02T21:33:28.229Z,100920.71
2023-05-02T21:35:58.279Z,100917.38
2023-05-02T21:38:28.188Z,100917.76
2023-05-02T21:40:55.044Z,100913.95
2023-05-02T21:43:21.890Z,100915.98
2023-05-02T21:45:49.177Z,100917.58
2023-05-02T21:48:16.297Z,100924.93
2023-05-02T21:50:43.257Z,100929.13
2023-05-02T21:53:10.202Z,100928.17
2023-05-02T21:55:37.871Z,100929.41
2023-05-02T21:58:04.716Z,100932.81
2023-05-02T22:00:32.630Z,100934.41
2023-05-02T22:03:01.762Z,100938.35
2023-05-02T22:05:28.739Z,100939.31
2023-05-02T22:07:56.315Z,100937.61
2023-05-02T22:10:23.151Z,100935.65
2023-05-02T22:12:50.001Z,100934.59
2023-05-02T22:15:16.803Z,100933.33
2023-05-02T22:17:46.207Z,100935.20
2023-05-02T22:20:13.276Z,100932.42
2023-05-02T22:22:40.606Z,100933.46
2023-05-02T22:25:07.975Z,100935.70
2023-05-02T22:27:34.869Z,100930.04
2023-05-02T22:30:02.536Z,100929.52
2023-05-02T22:32:29.624Z,100925.95
2023-05-02T22:34:56.413Z,100926.23
2023-05-02T22:37:23.335Z,100926.38
2023-05-02T22:39:50.242Z,100925.59
2023-05-02T22:42:17.196Z,100926.70
2023-05-02T22:44:53.582Z,100925.88
2023-05-02T22:47:25.385Z,100932.79
2023-05-02T22:49:52.829Z,100932.73
2023-05-02T22:52:20.928Z,100934.48
2023-05-02T22:54:47.813Z,100934.80
2023-05-02T22:57:14.616Z,100940.36
2023-05-02T22:59:41.424Z,100941.42
2023-05-02T23:02:10.427Z,100941.98
2023-05-02T23:04:37.397Z,100942.34
2023-05-02T23:07:04.299Z,100943.29
2023-05-02T23:09:31.250Z,100943.58
2023-05-02T23:11:58.105Z,100941.48
2023-05-02T23:14:24.946Z,100940.62
2023-05-02T23:16:53.829Z,100943.62
2023-05-02T23:19:20.790Z,100948.95
2023-05-02T23:21:47.599Z,100948.83
2023-05-02T23:24:14.626Z,100952.11
2023-05-02T23:26:41.439Z,100954.39
2023-05-02T23:29:08.475Z,100948.19
2023-05-02T23:31:35.492Z,100949.05
2023-05-02T23:34:02.395Z,100949.23
2023-05-02T23:36:29.246Z,100953.30
2023-05-02T23:38:56.084Z,100954.04
2023-05-02T23:41:23.138Z,100957.81
2023-05-02T23:43:49.929Z,100958.55
2023-05-02T23:46:16.803Z,100961.36
2023-05-02T23:48:43.684Z,100960.23
2023-05-02T23:51:10.474Z,100957.54
2023-05-02T23:53:37.381Z,100958.38
2023-05-02T23:56:04.431Z,100957.69
2023-05-02T23:58:31.534Z,100953.98
